Time;durP1;ratioP1;P1;durP2;ratioP2;P2;SDS_P1;SDS_P2;PMS_P1;PMS_P2;Temp;Humidity;BMP_temperature;BMP_pressure;BME280_temperature;BME280_humidity;BME280_pressure;Samples;Min_cycle;Max_cycle;Signal;HPM_P1;HPM_P2
2021/06/09 00:00:43;;;;;;;39.17;31.88;;;;;;;16.86;72.16;100899.88;4980388;28;20062;-79
2021/06/09 00:03:09;;;;;;;38.40;31.70;;;;;;;16.87;72.08;100901.56;4980651;28;20066;-79
2021/06/09 00:05:36;;;;;;;38.45;30.85;;;;;;;16.85;71.89;100901.06;4979900;28;20055;-80
2021/06/09 00:08:03;;;;;;;38.83;31.65;;;;;;;16.77;72.19;100893.50;4980735;28;20055;-80
2021/06/09 00:10:34;;;;;;;38.83;31.65;;;;;;;16.73;72.34;100886.94;4979649;28;20377;-78
2021/06/09 00:13:01;;;;;;;34.40;28.83;;;;;;;16.73;72.07;100889.75;4979519;28;20054;-80
2021/06/09 00:15:28;;;;;;;35.30;30.27;;;;;;;16.71;72.02;100894.91;4979824;28;20054;-79
2021/06/09 00:17:55;;;;;;;38.03;31.33;;;;;;;16.67;72.09;100888.31;4979551;28;20051;-79
2021/06/09 00:20:24;;;;;;;36.65;30.30;;;;;;;16.63;72.16;100894.66;4979894;28;20062;-77
2021/06/09 00:22:52;;;;;;;35.30;30.20;;;;;;;16.62;72.03;100890.16;4979600;28;20054;-80
2021/06/09 00:25:20;;;;;;;38.30;29.92;;;;;;;16.61;71.64;100890.53;4979759;28;20095;-80
2021/06/09 00:27:54;;;;;;;35.42;28.85;;;;;;;16.58;71.63;100894.84;4980129;28;20059;-79
2021/06/09 00:30:25;;;;;;;33.67;28.35;;;;;;;16.56;71.37;100897.19;4980248;28;20055;-79
2021/06/09 00:32:52;;;;;;;33.33;27.10;;;;;;;16.54;71.22;100887.44;4979929;28;20143;-79
2021/06/09 00:35:19;;;;;;;32.03;26.65;;;;;;;16.51;70.98;100891.78;4980302;28;20066;-79
2021/06/09 00:37:46;;;;;;;31.17;26.08;;;;;;;16.50;70.94;100895.75;4980276;28;20061;-80
2021/06/09 00:40:13;;;;;;;31.25;25.75;;;;;;;16.46;70.97;100902.41;4979040;28;20047;-79
2021/06/09 00:42:40;;;;;;;31.42;26.60;;;;;;;16.36;71.03;100903.66;4980004;28;20051;-79
2021/06/09 00:45:10;;;;;;;27.95;24.80;;;;;;;16.31;71.27;100895.41;4980071;28;20065;-80
2021/06/09 00:47:36;;;;;;;29.58;26.20;;;;;;;16.26;71.14;100902.06;4980570;28;20054;-80
2021/06/09 00:50:04;;;;;;;29.75;25.65;;;;;;;16.23;71.25;100903.59;4980188;28;20055;-79
2021/06/09 00:52:31;;;;;;;30.30;26.30;;;;;;;16.19;71.47;100890.53;4980068;28;20065;-78
2021/06/09 00:54:58;;;;;;;29.70;26.15;;;;;;;16.19;71.21;100901.78;4979387;28;20062;-79
2021/06/09 00:57:25;;;;;;;33.00;26.17;;;;;;;16.14;71.34;100902.00;4979766;28;20408;-80
2021/06/09 00:59:52;;;;;;;29.98;25.17;;;;;;;16.10;71.18;100899.03;4980108;28;20058;-81
2021/06/09 01:02:20;;;;;;;30.75;26.20;;;;;;;16.10;71.51;100899.03;4977437;28;20055;-77
2021/06/09 01:04:47;;;;;;;33.63;26.65;;;;;;;16.09;71.44;100890.97;4976092;28;20058;-78
2021/06/09 01:07:16;;;;;;;31.33;27.10;;;;;;;16.04;71.62;100877.91;4976519;28;20054;-78
2021/06/09 01:09:43;;;;;;;33.75;27.58;;;;;;;16.01;71.76;100890.66;4974296;28;20058;-79
2021/06/09 01:12:11;;;;;;;31.90;26.20;;;;;;;15.98;72.19;100882.09;4976319;28;20057;-80
2021/06/09 01:14:40;;;;;;;36.92;28.08;;;;;;;15.92;72.05;100881.50;4977856;28;20061;-79
2021/06/09 01:17:07;;;;;;;34.58;28.95;;;;;;;15.92;72.31;100891.91;4979233;28;20412;-82
2021/06/09 01:19:36;;;;;;;34.45;28.45;;;;;;;15.92;72.29;100880.66;4978499;28;20066;-81
2021/06/09 01:22:04;;;;;;;28.30;25.20;;;;;;;15.91;71.86;100871.41;4981086;28;20051;-82
2021/06/09 01:24:31;;;;;;;33.92;27.85;;;;;;;15.97;71.50;100874.84;4982707;28;20051;-81
2021/06/09 01:26:58;;;;;;;33.22;27.25;;;;;;;15.94;71.50;100873.53;4982286;28;20061;-80
2021/06/09 01:29:26;;;;;;;33.63;27.20;;;;;;;15.89;71.54;100875.72;4982542;28;20058;-81
2021/06/09 01:31:53;;;;;;;32.63;27.35;;;;;;;15.80;71.77;100872.97;4982460;28;20066;-81
2021/06/09 01:34:20;;;;;;;37.13;29.67;;;;;;;15.76;72.13;100881.25;4982977;28;20054;-81
2021/06/09 01:36:47;;;;;;;35.50;29.27;;;;;;;15.75;72.42;100876.81;4982499;28;20483;-81
2021/06/09 01:39:17;;;;;;;38.90;30.90;;;;;;;15.72;72.39;100871.84;4981934;28;20477;-80
2021/06/09 01:41:46;;;;;;;35.00;28.02;;;;;;;15.72;72.16;100877.47;4982744;28;20491;-81
2021/06/09 01:44:14;;;;;;;32.65;27.42;;;;;;;15.69;72.16;100882.94;4982284;28;20057;-81
2021/06/09 01:46:41;;;;;;;36.97;29.25;;;;;;;15.68;72.33;100882.09;4982077;28;20066;-81
2021/06/09 01:49:08;;;;;;;36.20;29.85;;;;;;;15.64;72.60;100881.13;4981605;28;20062;-81
2021/06/09 01:51:36;;;;;;;41.38;32.47;;;;;;;15.62;72.62;100884.28;4982532;28;20058;-80
2021/06/09 01:54:03;;;;;;;41.33;31.27;;;;;;;15.62;72.54;100883.44;4981865;28;20405;-81
2021/06/09 01:56:31;;;;;;;39.92;30.05;;;;;;;15.62;72.34;100886.25;4981991;28;20055;-81
2021/06/09 01:58:58;;;;;;;36.97;28.30;;;;;;;15.59;72.21;100882.13;4981372;28;20062;-81
2021/06/09 02:01:25;;;;;;;34.10;28.02;;;;;;;15.60;71.88;100886.59;4982709;28;20345;-79
2021/06/09 02:03:52;;;;;;;34.47;28.42;;;;;;;15.57;71.75;100884.47;4981762;28;20059;-81
2021/06/09 02:06:19;;;;;;;35.10;27.42;;;;;;;15.50;71.84;100883.38;4981487;28;20062;-81
2021/06/09 02:08:46;;;;;;;41.38;30.25;;;;;;;15.43;72.46;100884.72;4982200;28;20050;-81
2021/06/09 02:11:13;;;;;;;39.25;27.83;;;;;;;15.42;72.40;100885.03;4981834;28;20055;-81
2021/06/09 02:13:41;;;;;;;39.80;31.33;;;;;;;15.45;72.42;100884.34;4992354;28;20059;-81
2021/06/09 02:16:08;;;;;;;37.97;29.23;;;;;;;15.43;72.19;100890.31;4992123;28;20061;-79
2021/06/09 02:18:35;;;;;;;34.97;28.65;;;;;;;15.37;72.53;100883.25;4992089;28;20062;-80
2021/06/09 02:21:03;;;;;;;33.92;28.00;;;;;;;15.32;72.15;100880.63;4992825;28;20058;-79
2021/06/09 02:23:33;;;;;;;36.47;27.67;;;;;;;15.28;72.55;100882.44;4992440;28;20428;-79
2021/06/09 02:26:00;;;;;;;37.45;28.08;;;;;;;15.27;72.51;100878.00;4992827;28;20051;-80
2021/06/09 02:28:30;;;;;;;34.63;27.40;;;;;;;15.25;72.37;100873.91;4992981;28;20057;-80
2021/06/09 02:30:59;;;;;;;36.33;29.10;;;;;;;15.24;72.28;100864.63;4991637;28;20059;-80
2021/06/09 02:33:26;;;;;;;32.97;26.50;;;;;;;15.22;72.15;100869.75;4992236;28;20053;-81
2021/06/09 02:35:56;;;;;;;31.55;26.55;;;;;;;15.18;72.37;100866.81;4991694;28;20058;-81
2021/06/09 02:38:24;;;;;;;32.42;26.35;;;;;;;15.17;72.50;100861.53;4990424;28;20050;-81
2021/06/09 02:40:53;;;;;;;31.38;25.70;;;;;;;15.16;72.37;100865.47;4991588;28;20047;-81
2021/06/09 02:43:21;;;;;;;33.13;25.58;;;;;;;15.13;72.17;100864.19;4991990;28;20058;-81
2021/06/09 02:45:52;;;;;;;40.08;28.70;;;;;;;15.13;72.42;100872.59;4990764;28;20055;-80
2021/06/09 02:48:25;;;;;;;33.47;26.63;;;;;;;15.12;72.69;100870.97;4990968;28;20065;-80
2021/06/09 02:50:52;;;;;;;35.30;28.15;;;;;;;15.10;72.54;100862.06;4991504;28;20055;-81
2021/06/09 02:53:26;;;;;;;36.63;27.05;;;;;;;15.12;72.17;100867.31;4989602;28;20055;-80
2021/06/09 02:56:06;;;;;;;36.97;28.75;;;;;;;15.10;72.10;100872.44;4991011;28;20055;-81
2021/06/09 02:58:42;;;;;;;35.80;28.42;;;;;;;15.06;72.31;100875.13;4987422;28;20057;-79
2021/06/09 03:01:19;;;;;;;35.30;27.30;;;;;;;15.02;72.48;100880.56;4977979;28;20051;-80
2021/06/09 03:03:52;;;;;;;40.50;30.58;;;;;;;15.01;72.54;100864.91;4977441;28;20055;-80
2021/06/09 03:06:26;;;;;;;42.00;31.67;;;;;;;14.98;72.25;100873.97;4977781;28;20058;-79
2021/06/09 03:09:02;;;;;;;41.25;30.65;;;;;;;14.97;72.72;100871.50;4976561;28;20051;-79
2021/06/09 03:11:35;;;;;;;43.17;32.83;;;;;;;14.92;72.77;100872.50;4979344;28;20062;-79
2021/06/09 03:14:17;;;;;;;43.63;32.03;;;;;;;14.93;72.80;100881.72;4979808;28;20062;-81
2021/06/09 03:16:49;;;;;;;40.95;29.80;;;;;;;14.93;72.70;100873.31;4980379;28;20059;-80
2021/06/09 03:19:22;;;;;;;41.50;28.92;;;;;;;14.96;72.16;100876.28;4980376;28;20389;-81
2021/06/09 03:21:55;;;;;;;42.22;30.50;;;;;;;14.97;72.27;100872.34;4981651;28;20054;-80
2021/06/09 03:24:27;;;;;;;41.08;30.33;;;;;;;14.94;72.52;100874.97;4984015;28;20062;-81
2021/06/09 03:26:57;;;;;;;44.65;33.53;;;;;;;14.94;72.67;100873.00;4979888;28;20369;-80
2021/06/09 03:29:32;;;;;;;46.15;32.60;;;;;;;14.93;72.74;100874.16;4979442;28;20085;-81
2021/06/09 03:32:02;;;;;;;48.28;32.10;;;;;;;14.90;72.25;100874.81;4980408;28;20054;-81
2021/06/09 03:34:37;;;;;;;43.42;33.38;;;;;;;14.94;72.36;100873.00;4980157;28;20504;-81
2021/06/09 03:37:08;;;;;;;46.40;32.90;;;;;;;14.95;72.48;100859.78;4979717;28;20054;-81
2021/06/09 03:39:37;;;;;;;38.47;31.38;;;;;;;14.99;72.34;100869.19;4984862;28;20345;-81
2021/06/09 03:42:09;;;;;;;41.28;30.85;;;;;;;15.03;71.79;100861.75;4979982;28;20381;-81
2021/06/09 03:44:40;;;;;;;42.25;31.30;;;;;;;15.00;72.06;100866.03;4979670;28;20050;-81
2021/06/09 03:47:08;;;;;;;42.28;32.03;;;;;;;15.00;71.95;100859.63;4979577;28;20062;-81
2021/06/09 03:49:38;;;;;;;40.10;30.08;;;;;;;15.02;72.08;100860.91;4979050;28;20392;-81
2021/06/09 03:52:08;;;;;;;37.10;28.13;;;;;;;15.04;72.07;100868.19;4979434;28;20055;-80
2021/06/09 03:54:39;;;;;;;37.42;29.55;;;;;;;15.07;71.88;100871.13;4979194;28;20050;-81
2021/06/09 03:57:07;;;;;;;35.80;29.05;;;;;;;15.07;71.95;100862.72;4979948;28;20051;-81
2021/06/09 03:59:37;;;;;;;36.55;28.98;;;;;;;15.08;72.05;100860.75;4979994;28;20054;-82
2021/06/09 04:02:08;;;;;;;37.47;29.23;;;;;;;15.10;71.75;100867.66;4980413;28;20054;-80
2021/06/09 04:04:38;;;;;;;38.13;30.15;;;;;;;15.11;71.81;100872.09;4979770;28;20050;-81
2021/06/09 04:07:07;;;;;;;39.30;29.85;;;;;;;15.14;72.38;100871.47;4979195;28;20530;-80
2021/06/09 04:09:35;;;;;;;40.75;32.55;;;;;;;15.20;72.22;100869.28;4979596;28;20055;-81
2021/06/09 04:12:05;;;;;;;40.95;30.35;;;;;;;15.27;72.75;100861.16;4979734;28;20050;-80
2021/06/09 04:14:33;;;;;;;;;;;;;;;15.36;71.95;100861.13;4980346;28;20496;-81
2021/06/09 04:17:02;;;;;;;36.63;28.98;;;;;;;15.43;71.72;100862.25;4979920;28;19922;-80
2021/06/09 04:19:30;;;;;;;32.17;26.50;;;;;;;15.49;71.54;100850.81;4980031;28;20062;-81
2021/06/09 04:22:01;;;;;;;36.17;27.27;;;;;;;15.54;71.54;100859.88;4964564;28;20047;-79
2021/06/09 04:24:28;;;;;;;32.00;25.67;;;;;;;15.58;71.95;100860.84;4977784;28;20054;-79
2021/06/09 04:26:56;;;;;;;32.90;25.30;;;;;;;15.60;71.97;100854.88;4978775;28;20047;-81
2021/06/09 04:29:23;;;;;;;35.03;26.95;;;;;;;15.70;71.88;100856.47;4978907;28;20061;-81
2021/06/09 04:31:51;;;;;;;32.15;26.85;;;;;;;15.77;71.68;100852.00;4978909;28;20051;-81
2021/06/09 04:34:19;;;;;;;34.30;28.00;;;;;;;15.83;71.69;100855.41;4978477;28;20499;-81
2021/06/09 04:36:51;;;;;;;31.95;27.33;;;;;;;15.90;71.27;100854.91;4979376;28;20055;-81
2021/06/09 04:39:19;;;;;;;33.50;26.15;;;;;;;15.92;71.61;100861.00;4978170;28;20043;-80
2021/06/09 04:41:46;;;;;;;31.73;26.40;;;;;;;15.94;71.50;100862.31;4979150;28;20055;-80
2021/06/09 04:44:14;;;;;;;33.10;26.95;;;;;;;16.00;71.44;100857.28;4979009;28;20055;-81
2021/06/09 04:46:42;;;;;;;33.53;26.50;;;;;;;16.06;71.00;100858.72;4979028;28;20058;-80
2021/06/09 04:49:08;;;;;;;31.35;25.60;;;;;;;16.14;70.59;100854.22;4978464;28;20393;-81
2021/06/09 04:51:38;;;;;;;31.75;25.60;;;;;;;16.21;70.59;100849.69;4978815;28;20051;-81
2021/06/09 04:54:06;;;;;;;31.30;25.80;;;;;;;16.33;70.54;100848.91;4978676;28;20055;-81
2021/06/09 04:56:36;;;;;;;28.70;25.10;;;;;;;16.44;70.03;100854.94;4980578;28;20096;-81
2021/06/09 04:59:03;;;;;;;33.05;26.38;;;;;;;16.53;70.20;100854.88;4983130;28;20066;-81
2021/06/09 05:01:33;;;;;;;31.85;25.90;;;;;;;16.60;69.87;100855.13;4983188;28;20058;-80
2021/06/09 05:04:00;;;;;;;30.13;25.98;;;;;;;16.74;69.75;100857.66;4983133;28;20074;-81
2021/06/09 05:06:26;;;;;;;29.67;26.33;;;;;;;16.80;69.48;100850.63;4983131;28;20055;-81
2021/06/09 05:08:54;;;;;;;30.75;26.50;;;;;;;16.86;69.20;100843.63;4982195;28;20058;-81
2021/06/09 05:11:29;;;;;;;31.05;25.90;;;;;;;16.91;69.10;100846.22;4982277;28;20042;-81
2021/06/09 05:14:01;;;;;;;30.80;27.00;;;;;;;16.99;68.74;100850.13;4980390;28;20408;-80
2021/06/09 05:16:29;;;;;;;30.73;26.20;;;;;;;17.13;68.59;100861.84;4952161;28;20455;-82
2021/06/09 06:26:37;;;;;;;27.08;24.17;;;;;;;20.35;62.43;100849.47;4938932;28;20051;-74
2021/06/09 07:16:49;;;;;;;;;;;;;;;;;;;;;
2021/06/09 08:46:24;;;;;;;;;;;;;;;;;;;;;
2021/06/09 08:49:34;;;;;;;23.05;21.05;;;;;;;34.82;28.04;100839.72;4955077;28;20043;-79
2021/06/09 08:53:03;;;;;;;23.60;21.45;;;;;;;33.89;29.47;100836.19;5027090;28;20057;-79
2021/06/09 09:09:56;;;;;;;22.27;20.15;;;;;;;35.91;26.68;100832.69;4952259;28;20058;-80
2021/06/09 09:32:56;;;;;;;16.75;15.23;;;;;;;42.27;18.19;100830.91;5024735;28;20042;-84
2021/06/09 09:35:59;;;;;;;15.65;14.15;;;;;;;43.45;16.91;100838.91;4961721;28;20120;-80
2021/06/09 09:42:32;;;;;;;14.48;13.27;;;;;;;45.20;15.79;100835.69;5117094;27;20629;-66
2021/06/09 09:45:22;;;;;;;14.57;13.38;;;;;;;45.72;14.85;100846.38;5107672;28;20472;-66
2021/06/09 09:48:13;;;;;;;15.55;14.07;;;;;;;46.25;13.75;100827.47;5106128;28;20052;-66
2021/06/09 09:50:43;;;;;;;13.20;12.10;;;;;;;46.18;14.79;100828.88;5092052;28;20508;-66
2021/06/09 09:56:02;;;;;;;15.32;13.95;;;;;;;46.12;14.03;100843.72;5074374;28;20069;-66
2021/06/09 09:58:32;;;;;;;14.88;13.68;;;;;;;46.59;13.78;100839.53;5074685;28;20064;-66
2021/06/09 10:01:11;;;;;;;15.77;14.57;;;;;;;46.60;14.00;100838.16;5091376;28;20063;-66
2021/06/09 10:03:39;;;;;;;15.25;13.93;;;;;;;46.81;13.60;100834.63;5089988;28;20052;-66
2021/06/09 10:06:21;;;;;;;14.35;13.20;;;;;;;44.90;14.94;100841.59;5098555;28;20051;-66
2021/06/09 10:12:07;;;;;;;15.35;14.05;;;;;;;41.83;17.25;100827.28;5063135;27;20158;-65
2021/06/09 10:14:39;;;;;;;15.30;14.07;;;;;;;42.57;17.38;100828.31;5048404;28;20053;-65
2021/06/09 10:17:09;;;;;;;16.85;15.30;;;;;;;43.35;15.74;100835.50;5059213;28;20056;-65
2021/06/09 10:19:38;;;;;;;16.70;15.38;;;;;;;44.41;15.57;100830.47;5064428;28;20057;-65
2021/06/09 10:22:07;;;;;;;13.57;12.40;;;;;;;44.97;14.73;100824.16;5053266;28;20425;-65
2021/06/09 10:24:45;;;;;;;13.10;12.05;;;;;;;45.47;13.78;100833.81;5054065;28;20049;-65
2021/06/09 10:27:15;;;;;;;11.70;10.80;;;;;;;46.26;13.26;100834.94;5045638;28;20489;-65
2021/06/09 10:29:42;;;;;;;15.45;14.05;;;;;;;46.76;13.35;100833.34;5042669;28;20053;-65
2021/06/09 10:32:11;;;;;;;14.30;13.17;;;;;;;46.72;12.49;100835.81;5049807;28;20053;-66
2021/06/09 10:34:39;;;;;;;15.32;14.02;;;;;;;47.20;12.48;100827.25;5052783;28;20060;-66
2021/06/09 10:37:08;;;;;;;14.32;13.13;;;;;;;47.47;12.16;100825.09;5063009;28;20076;-66
2021/06/09 10:39:37;;;;;;;13.68;12.57;;;;;;;47.91;12.45;100826.31;5064615;28;20053;-66
2021/06/09 10:42:17;;;;;;;15.48;14.10;;;;;;;47.73;12.35;100821.34;5049610;28;20145;-66
2021/06/09 10:44:47;;;;;;;13.00;11.90;;;;;;;45.85;14.20;100836.84;5049016;28;20446;-66
2021/06/09 10:47:18;;;;;;;15.13;13.73;;;;;;;44.11;15.52;100834.13;5048419;28;20061;-66
2021/06/09 10:49:45;;;;;;;16.98;15.43;;;;;;;42.78;16.27;100829.66;5045600;28;20402;-65
2021/06/09 10:52:13;;;;;;;14.80;13.70;;;;;;;41.20;18.27;100839.19;5049413;28;20045;-65
2021/06/09 10:54:41;;;;;;;16.13;14.77;;;;;;;39.82;19.81;100828.75;5045505;28;20057;-65
2021/06/09 10:57:19;;;;;;;17.13;15.80;;;;;;;38.53;21.02;100828.34;5048258;28;20057;-65
2021/06/09 10:59:48;;;;;;;16.70;15.20;;;;;;;38.41;21.59;100835.28;5036268;28;20052;-65
2021/06/09 11:02:26;;;;;;;13.98;12.82;;;;;;;40.15;20.29;100831.31;5045842;28;20053;-65
2021/06/09 11:04:56;;;;;;;13.82;12.63;;;;;;;41.15;18.40;100829.84;5036882;28;20469;-65
2021/06/09 11:07:30;;;;;;;14.50;13.23;;;;;;;42.41;16.82;100829.88;5049456;28;20068;-65
2021/06/09 11:10:01;;;;;;;13.02;11.95;;;;;;;43.31;15.80;100823.22;5047896;28;20049;-65
2021/06/09 11:12:28;;;;;;;13.30;12.20;;;;;;;43.55;15.81;100817.53;5048245;28;20057;-65
2021/06/09 11:14:58;;;;;;;11.32;10.32;;;;;;;44.46;15.15;100820.03;5048575;28;20496;-65
2021/06/09 11:17:43;;;;;;;12.60;11.70;;;;;;;45.21;15.11;100812.97;5048756;28;20485;-65
2021/06/09 11:20:19;;;;;;;11.75;10.65;;;;;;;45.46;14.36;100808.66;5039573;28;20079;-66
2021/06/09 11:22:47;;;;;;;10.95;10.05;;;;;;;44.84;14.62;100820.28;5038885;28;20062;-66
2021/06/09 11:25:24;;;;;;;9.65;8.85;;;;;;;44.16;15.20;100817.81;5019442;28;21369;-66
2021/06/09 11:27:55;;;;;;;11.27;9.30;;;;;;;43.40;15.71;100807.47;5003353;28;20041;-65
2021/06/09 11:30:50;;;;;;;11.02;10.00;;;;;;;42.50;15.60;100808.34;5033742;28;20045;-65
2021/06/09 11:33:35;;;;;;;11.75;10.75;;;;;;;41.63;17.04;100801.97;5021842;28;20069;-65
2021/06/09 11:36:06;;;;;;;11.55;10.32;;;;;;;40.57;18.41;100808.63;5033001;28;20506;-65
2021/06/09 11:38:38;;;;;;;12.20;11.10;;;;;;;39.67;19.25;100804.69;5036110;28;20064;-65
2021/06/09 11:41:08;;;;;;;11.60;10.60;;;;;;;38.75;20.38;100800.94;5031128;28;20060;-65
2021/06/09 11:43:38;;;;;;;11.52;10.52;;;;;;;38.07;20.52;100799.69;5031269;28;20049;-65
2021/06/09 11:46:10;;;;;;;11.18;10.18;;;;;;;37.09;22.77;100802.31;5020299;28;20053;-65
2021/06/09 11:48:39;;;;;;;10.73;9.75;;;;;;;36.61;23.19;100796.34;5030797;28;20061;-65
2021/06/09 11:51:24;;;;;;;11.38;9.75;;;;;;;36.07;23.80;100795.94;5033351;28;20104;-65
2021/06/09 11:53:53;;;;;;;11.13;9.35;;;;;;;36.83;22.10;100801.94;5030612;28;20487;-65
2021/06/09 11:56:23;;;;;;;9.93;9.02;;;;;;;37.82;22.31;100789.41;5018883;28;20050;-65
2021/06/09 11:58:52;;;;;;;8.73;7.93;;;;;;;39.11;19.95;100788.03;5021711;28;20048;-65
2021/06/09 12:01:22;;;;;;;8.98;8.18;;;;;;;40.27;18.35;100788.41;5032419;28;20049;-65
2021/06/09 12:04:09;;;;;;;9.90;8.98;;;;;;;40.93;16.61;100785.81;5033808;28;20049;-65
2021/06/09 12:06:40;;;;;;;9.32;8.55;;;;;;;41.63;16.44;100780.69;5025282;28;20057;-65
2021/06/09 12:09:07;;;;;;;8.73;8.02;;;;;;;41.84;15.65;100776.25;5032401;28;20049;-65
2021/06/09 12:11:42;;;;;;;8.38;7.78;;;;;;;41.87;15.90;100772.25;5033147;28;20049;-65
2021/06/09 12:14:20;;;;;;;8.88;8.07;;;;;;;42.34;15.89;100769.72;5027285;28;20054;-65
2021/06/09 12:16:51;;;;;;;8.52;7.82;;;;;;;42.33;15.85;100773.94;5031980;28;20062;-65
2021/06/09 12:19:31;;;;;;;8.40;7.70;;;;;;;42.16;16.46;100767.28;5033451;28;20076;-65
2021/06/09 12:22:02;;;;;;;7.90;7.20;;;;;;;41.31;17.27;100760.34;5034347;28;20053;-65
2021/06/09 12:24:30;;;;;;;8.63;7.63;;;;;;;40.61;17.57;100774.16;5027584;28;20049;-65
2021/06/09 12:27:01;;;;;;;9.23;8.00;;;;;;;39.62;18.89;100767.53;5012742;28;20054;-65
2021/06/09 12:29:31;;;;;;;9.82;8.85;;;;;;;38.79;19.88;100772.44;5011644;28;20061;-65
2021/06/09 12:32:02;;;;;;;9.23;8.32;;;;;;;37.87;20.94;100770.47;5005500;28;20411;-65
2021/06/09 12:34:40;;;;;;;10.00;9.10;;;;;;;36.84;21.68;100769.50;5006456;28;20050;-65
2021/06/09 12:37:09;;;;;;;8.82;8.07;;;;;;;36.04;22.69;100773.72;4999208;28;20810;-65
2021/06/09 12:39:38;;;;;;;9.43;8.63;;;;;;;36.09;23.19;100764.38;5013135;28;20061;-65
2021/06/09 12:42:13;;;;;;;10.00;9.05;;;;;;;36.71;21.93;100766.81;5013998;28;20054;-65
2021/06/09 12:44:48;;;;;;;9.20;8.40;;;;;;;37.20;21.77;100766.94;5013428;28;20049;-65
2021/06/09 12:47:25;;;;;;;8.95;7.63;;;;;;;37.72;20.96;100761.72;5013106;28;20050;-65
2021/06/09 12:50:15;;;;;;;8.32;7.57;;;;;;;38.43;21.21;100759.06;5002432;28;20049;-65
2021/06/09 12:52:44;;;;;;;7.93;7.22;;;;;;;38.77;19.11;100757.56;5003419;28;20054;-65
2021/06/09 12:55:13;;;;;;;7.82;7.22;;;;;;;39.14;19.46;100768.72;5012403;28;20356;-65
2021/06/09 12:57:43;;;;;;;10.43;8.10;;;;;;;39.04;18.78;100755.59;5000371;28;20058;-65
2021/06/09 13:00:29;;;;;;;8.40;7.70;;;;;;;38.97;19.08;100754.72;5007445;28;20056;-65
2021/06/09 13:03:23;;;;;;;6.80;6.30;;;;;;;38.39;21.22;100759.31;5007217;28;20050;-65
2021/06/09 13:05:56;;;;;;;8.35;7.60;;;;;;;37.75;20.31;100749.09;5005559;28;20057;-65
2021/06/09 13:08:27;;;;;;;7.45;6.72;;;;;;;37.11;21.42;100751.16;4993926;28;20061;-65
2021/06/09 13:11:02;;;;;;;6.78;6.25;;;;;;;36.60;22.91;100752.00;5002747;28;20058;-65
2021/06/09 13:13:29;;;;;;;7.22;6.53;;;;;;;36.65;21.92;100744.78;5006993;28;20065;-65
2021/06/09 13:16:00;;;;;;;8.60;6.32;;;;;;;36.97;22.62;100740.25;5011326;28;20061;-65
2021/06/09 13:18:37;;;;;;;12.70;7.15;;;;;;;37.39;22.70;100733.53;5008431;28;20050;-65
2021/06/09 13:21:36;;;;;;;7.05;6.22;;;;;;;37.65;20.98;100733.81;5010379;28;20050;-65
2021/06/09 13:24:17;;;;;;;5.93;5.43;;;;;;;37.97;21.52;100734.97;5001916;28;20052;-65
2021/06/09 13:26:49;;;;;;;6.30;5.80;;;;;;;38.06;19.94;100733.31;4993151;28;20487;-65
2021/06/09 13:29:18;;;;;;;6.90;6.30;;;;;;;38.08;20.24;100728.59;4995300;28;20058;-65
2021/06/09 13:31:46;;;;;;;7.07;6.40;;;;;;;38.22;19.92;100721.19;5011946;28;20057;-65
2021/06/09 13:34:21;;;;;;;7.05;6.30;;;;;;;38.05;19.54;100720.88;5012126;28;20049;-65
2021/06/09 13:36:54;;;;;;;7.55;6.78;;;;;;;37.53;20.20;100726.16;5009965;28;20053;-65
2021/06/09 13:39:22;;;;;;;6.95;6.35;;;;;;;37.15;21.82;100719.81;5002633;28;20077;-65
2021/06/09 13:41:49;;;;;;;9.00;7.53;;;;;;;36.71;21.71;100720.38;5002675;28;20054;-65
2021/06/09 13:44:16;;;;;;;8.07;7.27;;;;;;;36.30;22.43;100727.78;5011938;28;20439;-65
2021/06/09 13:46:45;;;;;;;9.55;7.43;;;;;;;35.88;22.76;100723.47;5002411;28;20496;-65
2021/06/09 13:49:12;;;;;;;7.45;6.82;;;;;;;36.02;23.20;100715.41;5007354;28;20050;-65
2021/06/09 13:51:42;;;;;;;8.77;7.32;;;;;;;35.68;24.06;100717.38;5007617;28;20514;-65
2021/06/09 13:54:09;;;;;;;7.43;6.72;;;;;;;35.51;24.57;100709.00;4995685;28;20066;-65
2021/06/09 13:56:40;;;;;;;8.45;7.75;;;;;;;35.25;23.92;100713.47;4996173;28;20070;-65
2021/06/09 13:59:25;;;;;;;7.90;7.10;;;;;;;35.09;24.20;100714.53;4994735;28;20058;-65
2021/06/09 14:01:53;;;;;;;7.38;6.75;;;;;;;35.08;23.76;100707.16;4999120;28;20443;-65
2021/06/09 14:04:24;;;;;;;7.63;7.03;;;;;;;35.05;24.16;100708.94;5002314;28;20159;-65
2021/06/09 14:07:01;;;;;;;7.82;7.10;;;;;;;35.18;24.48;100703.03;4993072;28;20050;-65
2021/06/09 14:09:28;;;;;;;7.35;6.47;;;;;;;35.26;23.27;100703.50;4993386;28;20064;-65
2021/06/09 14:12:00;;;;;;;6.50;5.90;;;;;;;35.28;24.05;100698.03;4992645;28;20050;-65
2021/06/09 14:14:29;;;;;;;7.00;6.03;;;;;;;35.10;23.38;100695.91;5004681;28;20057;-65
2021/06/09 14:17:08;;;;;;;7.25;6.55;;;;;;;35.14;23.97;100693.69;5010583;28;20077;-65
2021/06/09 14:19:37;;;;;;;8.00;7.22;;;;;;;34.88;24.48;100696.84;4999286;28;20057;-65
2021/06/09 14:22:17;;;;;;;6.78;6.28;;;;;;;34.86;23.73;100698.56;5008739;28;20053;-65
2021/06/09 14:24:44;;;;;;;6.50;6.00;;;;;;;34.65;24.45;100691.59;5001979;28;20053;-65
2021/06/09 14:27:11;;;;;;;7.22;6.60;;;;;;;34.41;25.00;100697.13;5006575;28;20066;-65
2021/06/09 14:29:38;;;;;;;7.53;6.68;;;;;;;34.02;25.33;100684.97;5004890;28;20054;-65
2021/06/09 14:32:12;;;;;;;7.20;6.50;;;;;;;33.63;26.05;100687.31;5009534;28;20416;-65
2021/06/09 14:34:40;;;;;;;7.25;6.65;;;;;;;33.41;26.26;100688.06;5010462;28;20050;-65
2021/06/09 14:37:11;;;;;;;7.47;6.70;;;;;;;33.36;26.92;100682.88;5011985;28;20050;-65
2021/06/09 14:39:38;;;;;;;7.65;6.68;;;;;;;33.49;27.01;100677.84;5011410;28;20101;-65
2021/06/09 14:42:06;;;;;;;8.68;7.20;;;;;;;33.83;25.95;100682.00;5009447;28;20050;-65
2021/06/09 14:44:39;;;;;;;8.00;7.18;;;;;;;34.01;25.72;100681.28;5003571;28;20061;-65
2021/06/09 14:47:15;;;;;;;7.60;6.80;;;;;;;34.20;26.41;100679.34;4999884;28;20058;-65
2021/06/09 14:49:44;;;;;;;8.25;7.45;;;;;;;34.39;25.83;100682.31;4995956;28;20418;-65
2021/06/09 14:52:18;;;;;;;7.55;6.72;;;;;;;34.47;25.07;100678.66;5006982;28;20057;-65
2021/06/09 14:54:49;;;;;;;7.63;6.90;;;;;;;34.49;25.15;100678.19;5007269;28;20057;-65
2021/06/09 14:57:17;;;;;;;7.53;6.85;;;;;;;34.49;24.08;100675.28;5013387;28;20058;-65
2021/06/09 14:59:48;;;;;;;6.95;6.35;;;;;;;34.45;24.11;100675.44;5024819;28;20053;-65
2021/06/09 15:02:21;;;;;;;7.78;7.07;;;;;;;34.41;24.12;100671.09;5013359;28;20047;-65
2021/06/09 15:04:49;;;;;;;7.35;6.70;;;;;;;34.24;24.85;100674.22;5014643;28;20054;-65
2021/06/09 15:07:18;;;;;;;7.18;6.57;;;;;;;34.16;25.19;100676.59;5017618;28;20050;-65
2021/06/09 15:09:47;;;;;;;7.18;6.47;;;;;;;33.99;24.87;100668.59;4999589;28;20046;-65
2021/06/09 15:12:14;;;;;;;7.18;6.30;;;;;;;33.71;24.91;100665.53;5010022;28;20053;-65
2021/06/09 15:14:41;;;;;;;7.63;6.85;;;;;;;33.45;25.68;100665.66;5016046;28;20050;-65
2021/06/09 15:17:08;;;;;;;6.93;6.32;;;;;;;33.17;25.97;100664.59;5015128;28;20054;-65
2021/06/09 15:19:35;;;;;;;6.78;6.07;;;;;;;32.88;26.74;100664.75;5016730;28;20054;-65
2021/06/09 15:22:07;;;;;;;7.13;6.40;;;;;;;32.64;26.15;100665.16;5016692;28;20057;-65
2021/06/09 15:24:36;;;;;;;7.35;6.65;;;;;;;32.44;27.22;100670.31;5003092;28;20045;-65
2021/06/09 15:27:03;;;;;;;;;;;;;;;32.20;27.06;100672.75;5006870;28;20054;-65
2021/06/09 15:29:31;;;;;;;8.30;7.50;;;;;;;32.13;27.56;100665.13;5011253;28;20309;-65
2021/06/09 15:31:58;;;;;;;7.18;6.47;;;;;;;32.15;28.09;100660.53;5002930;28;20053;-65
2021/06/09 15:34:25;;;;;;;9.98;7.00;;;;;;;32.15;28.67;100668.38;4998884;28;20050;-65
2021/06/09 15:36:54;;;;;;;7.55;6.60;;;;;;;32.18;28.03;100673.19;5008648;28;20058;-65
2021/06/09 15:39:23;;;;;;;7.10;6.40;;;;;;;32.20;27.87;100669.88;5011275;28;20493;-65
2021/06/09 15:41:53;;;;;;;7.63;6.93;;;;;;;32.16;28.50;100670.78;5014221;28;20411;-65